Time;durP1;ratioP1;P1;durP2;ratioP2;P2;SDS_P1;SDS_P2;PMS_P1;PMS_P2;Temp;Humidity;BMP_temperature;BMP_pressure;BME280_temperature;BME280_humidity;BME280_pressure;Samples;Min_cycle;Max_cycle;Signal;HPM_P1;HPM_P2
2023/09/02 00:00:13;;;;;;;1.63;1.53;;;;;;;;;;5032176;28;20238;-83
2023/09/02 00:02:40;;;;;;;1.70;1.60;;;;;;;;;;5033490;28;20203;-84
2023/09/02 00:05:07;;;;;;;3.80;1.23;;;;;;;;;;5032607;28;20673;-84
2023/09/02 00:07:34;;;;;;;1.40;1.30;;;;;;;;;;5032386;28;20229;-84
2023/09/02 00:10:03;;;;;;;1.60;1.50;;;;;;;;;;5032974;28;20206;-84
2023/09/02 00:12:30;;;;;;;1.70;1.57;;;;;;;;;;5033900;28;20236;-84
2023/09/02 00:14:57;;;;;;;2.80;1.50;;;;;;;;;;5032920;28;20202;-84
2023/09/02 00:17:24;;;;;;;1.23;1.23;;;;;;;;;;5032901;28;20230;-84
2023/09/02 00:19:51;;;;;;;2.00;1.90;;;;;;;;;;5032435;28;20223;-84
2023/09/02 00:22:18;;;;;;;1.60;1.50;;;;;;;;;;5033619;28;20230;-84
2023/09/02 00:24:45;;;;;;;2.07;1.50;;;;;;;;;;5032784;28;20210;-84
2023/09/02 00:27:13;;;;;;;2.33;1.80;;;;;;;;;;5032616;28;20239;-84
2023/09/02 00:29:40;;;;;;;1.70;1.60;;;;;;;;;;5034972;28;20202;-84
2023/09/02 00:32:07;;;;;;;2.00;1.57;;;;;;;;;;5036082;28;20230;-84
2023/09/02 00:34:35;;;;;;;1.70;1.50;;;;;;;;;;5037295;28;20206;-84
2023/09/02 00:37:02;;;;;;;1.70;1.60;;;;;;;;;;5036084;28;20240;-84
2023/09/02 00:39:29;;;;;;;1.63;1.53;;;;;;;;;;5036561;28;20206;-84
2023/09/02 00:41:57;;;;;;;1.83;1.73;;;;;;;;;;5035869;28;20238;-84
2023/09/02 00:44:25;;;;;;;2.00;1.70;;;;;;;;;;5037734;28;20195;-84
2023/09/02 00:46:52;;;;;;;1.70;1.60;;;;;;;;;;5036787;28;20234;-84
2023/09/02 00:49:20;;;;;;;1.80;1.70;;;;;;;;;;5036819;28;20218;-84
2023/09/02 00:51:47;;;;;;;2.03;1.70;;;;;;;;;;5035969;28;21006;-84
2023/09/02 00:54:14;;;;;;;1.70;1.60;;;;;;;;;;5036680;28;20211;-84
2023/09/02 00:56:41;;;;;;;3.33;1.77;;;;;;;;;;5036338;28;20241;-84
2023/09/02 00:59:08;;;;;;;1.50;1.50;;;;;;;;;;5036596;28;20211;-84
2023/09/02 01:01:37;;;;;;;2.40;2.20;;;;;;;;;;5033440;28;20238;-84
2023/09/02 01:04:04;;;;;;;1.77;1.67;;;;;;;;;;5036177;28;20211;-84
2023/09/02 01:06:32;;;;;;;2.33;1.60;;;;;;;;;;5034363;28;20237;-84
2023/09/02 01:08:59;;;;;;;1.57;1.50;;;;;;;;;;5032811;28;20223;-83
2023/09/02 01:11:26;;;;;;;1.77;1.67;;;;;;;;;;5034611;28;20574;-84
2023/09/02 01:13:53;;;;;;;2.00;1.83;;;;;;;;;;5035944;28;20203;-84
2023/09/02 01:16:20;;;;;;;2.20;1.73;;;;;;;;;;5035608;28;20318;-84
2023/09/02 01:18:49;;;;;;;2.50;1.63;;;;;;;;;;5035911;28;20262;-84
2023/09/02 01:21:26;;;;;;;2.50;1.70;;;;;;;;;;5034912;28;20317;-84
2023/09/02 01:24:06;;;;;;;1.70;1.60;;;;;;;;;;5035377;28;20197;-84
2023/09/02 01:26:40;;;;;;;2.60;2.00;;;;;;;;;;5035360;28;20774;-84
2023/09/02 01:29:11;;;;;;;2.90;1.80;;;;;;;;;;5035737;28;20230;-84
2023/09/02 01:31:39;;;;;;;1.87;1.77;;;;;;;;;;5034957;28;20234;-84
2023/09/02 01:34:07;;;;;;;2.03;1.53;;;;;;;;;;5035812;28;20207;-83
2023/09/02 01:36:35;;;;;;;1.70;1.60;;;;;;;;;;5035233;28;20234;-84
2023/09/02 01:39:02;;;;;;;1.70;1.60;;;;;;;;;;5035368;28;20234;-83
2023/09/02 01:41:30;;;;;;;1.77;1.67;;;;;;;;;;5034441;28;20235;-83
2023/09/02 01:43:58;;;;;;;1.93;1.73;;;;;;;;;;5035328;28;20198;-83
2023/09/02 01:46:27;;;;;;;1.53;1.50;;;;;;;;;;5034608;28;20238;-83
2023/09/02 01:48:54;;;;;;;2.43;1.53;;;;;;;;;;5034780;28;20218;-83
2023/09/02 01:51:21;;;;;;;3.00;1.70;;;;;;;;;;5034176;28;20253;-83
2023/09/02 01:53:48;;;;;;;1.80;1.70;;;;;;;;;;5038488;28;20203;-83
2023/09/02 01:56:16;;;;;;;5.13;1.60;;;;;;;;;;5039972;28;20237;-83
2023/09/02 01:58:43;;;;;;;3.03;1.60;;;;;;;;;;5043775;28;20231;-82
2023/09/02 02:01:10;;;;;;;1.97;1.67;;;;;;;;;;5035710;28;20238;-83
2023/09/02 02:03:40;;;;;;;1.60;1.50;;;;;;;;;;5035445;28;20202;-82
2023/09/02 02:06:09;;;;;;;2.37;1.70;;;;;;;;;;5034731;28;20241;-82
2023/09/02 02:08:38;;;;;;;1.67;1.57;;;;;;;;;;5034748;28;20230;-83
2023/09/02 02:11:05;;;;;;;1.77;1.67;;;;;;;;;;5034131;28;20309;-82
2023/09/02 02:13:32;;;;;;;1.70;1.60;;;;;;;;;;5034450;28;20210;-83
2023/09/02 02:15:59;;;;;;;1.57;1.57;;;;;;;;;;5034358;28;20238;-83
2023/09/02 02:18:26;;;;;;;1.30;1.30;;;;;;;;;;5034430;28;20234;-83
2023/09/02 02:21:00;;;;;;;3.13;1.10;;;;;;;;;;5034066;28;20237;-82
2023/09/02 02:23:27;;;;;;;2.40;1.80;;;;;;;;;;5034269;28;20187;-83
2023/09/02 02:25:59;;;;;;;1.40;1.40;;;;;;;;;;5033481;28;20669;-83
2023/09/02 02:28:26;;;;;;;1.47;1.40;;;;;;;;;;5033691;28;20234;-83
2023/09/02 02:30:53;;;;;;;1.77;1.67;;;;;;;;;;5032842;28;20237;-83
2023/09/02 02:33:20;;;;;;;1.37;1.37;;;;;;;;;;5033465;28;20199;-83
2023/09/02 02:35:47;;;;;;;2.33;1.53;;;;;;;;;;5032868;28;20231;-83
2023/09/02 02:38:16;;;;;;;1.80;1.70;;;;;;;;;;5033091;28;20241;-83
2023/09/02 02:40:43;;;;;;;1.80;1.70;;;;;;;;;;5032236;28;20240;-83
2023/09/02 02:43:10;;;;;;;2.13;1.80;;;;;;;;;;5033429;28;20211;-83
2023/09/02 02:45:37;;;;;;;1.83;1.70;;;;;;;;;;5032885;28;20239;-83
2023/09/02 02:48:05;;;;;;;1.90;1.80;;;;;;;;;;5033444;28;20234;-82
2023/09/02 02:50:35;;;;;;;2.43;1.90;;;;;;;;;;5032484;28;20237;-83
2023/09/02 02:53:02;;;;;;;1.57;1.47;;;;;;;;;;5032897;28;20191;-82
2023/09/02 02:55:31;;;;;;;1.63;1.60;;;;;;;;;;5032865;28;20231;-83
2023/09/02 02:57:58;;;;;;;2.20;1.83;;;;;;;;;;5033301;28;20223;-83
2023/09/02 03:00:25;;;;;;;1.80;1.70;;;;;;;;;;5032301;28;20226;-83
2023/09/02 03:02:52;;;;;;;1.53;1.50;;;;;;;;;;5033172;28;20351;-83
2023/09/02 03:05:20;;;;;;;5.83;1.60;;;;;;;;;;5032628;28;20260;-82
2023/09/02 03:07:47;;;;;;;1.80;1.70;;;;;;;;;;5032932;28;20234;-83
2023/09/02 03:10:15;;;;;;;2.20;2.00;;;;;;;;;;5032536;28;20234;-83
2023/09/02 03:12:43;;;;;;;3.73;2.10;;;;;;;;;;5032693;28;20616;-82
2023/09/02 03:15:10;;;;;;;2.40;2.00;;;;;;;;;;5032505;28;20340;-82
2023/09/02 03:17:37;;;;;;;2.87;2.00;;;;;;;;;;5032579;28;20241;-82
2023/09/02 03:20:05;;;;;;;2.93;2.13;;;;;;;;;;5032301;28;20210;-82
2023/09/02 03:22:32;;;;;;;3.23;2.47;;;;;;;;;;5032386;28;20227;-82
2023/09/02 03:24:59;;;;;;;3.00;2.43;;;;;;;;;;5032141;28;20195;-82
2023/09/02 03:27:26;;;;;;;5.93;2.50;;;;;;;;;;5032413;28;20218;-82
2023/09/02 03:29:55;;;;;;;2.10;2.00;;;;;;;;;;5032082;28;20206;-83
2023/09/02 03:32:26;;;;;;;2.50;2.20;;;;;;;;;;5032602;28;20209;-83
2023/09/02 03:34:53;;;;;;;2.60;2.40;;;;;;;;;;5032153;28;20205;-83
2023/09/02 03:37:20;;;;;;;2.63;2.20;;;;;;;;;;5032226;28;20229;-83
2023/09/02 03:39:47;;;;;;;2.37;2.20;;;;;;;;;;5032394;28;20213;-82
2023/09/02 03:42:14;;;;;;;2.87;2.47;;;;;;;;;;5031515;28;20222;-83
2023/09/02 03:44:41;;;;;;;2.67;2.47;;;;;;;;;;5032244;28;20684;-82
2023/09/02 03:47:09;;;;;;;3.23;2.53;;;;;;;;;;5031647;28;20239;-82
2023/09/02 03:49:36;;;;;;;4.07;2.70;;;;;;;;;;5032348;28;20206;-83
2023/09/02 03:52:04;;;;;;;6.33;2.80;;;;;;;;;;5031551;28;20230;-83
2023/09/02 03:54:31;;;;;;;4.83;2.80;;;;;;;;;;5032041;28;20207;-82
2023/09/02 03:56:58;;;;;;;2.70;2.50;;;;;;;;;;5030764;28;20234;-82
2023/09/02 03:59:25;;;;;;;2.70;2.50;;;;;;;;;;5032257;28;20211;-82
2023/09/02 04:01:52;;;;;;;3.20;3.00;;;;;;;;;;5031266;28;20243;-82
2023/09/02 04:04:20;;;;;;;3.83;3.30;;;;;;;;;;5031033;28;20221;-82
2023/09/02 04:06:47;;;;;;;4.87;3.00;;;;;;;;;;5031236;28;20608;-82
2023/09/02 04:09:14;;;;;;;3.70;3.40;;;;;;;;;;5031983;28;20878;-82
2023/09/02 04:11:42;;;;;;;3.83;3.10;;;;;;;;;;5031392;28;20280;-82
2023/09/02 04:14:09;;;;;;;7.47;2.83;;;;;;;;;;5031906;28;20214;-82
2023/09/02 04:16:36;;;;;;;3.40;3.10;;;;;;;;;;5031489;28;20704;-83
2023/09/02 04:19:04;;;;;;;3.90;3.50;;;;;;;;;;5031604;28;20611;-82
2023/09/02 04:21:32;;;;;;;3.27;3.00;;;;;;;;;;5030915;28;20245;-81
2023/09/02 04:24:00;;;;;;;3.43;3.13;;;;;;;;;;5031618;28;20669;-82
2023/09/02 04:26:27;;;;;;;3.43;3.13;;;;;;;;;;5031386;28;20235;-82
2023/09/02 04:28:55;;;;;;;6.83;3.53;;;;;;;;;;5031683;28;20214;-82
2023/09/02 04:31:22;;;;;;;8.50;3.77;;;;;;;;;;5031056;28;20257;-82
2023/09/02 04:33:49;;;;;;;7.07;4.60;;;;;;;;;;5031735;28;20207;-82
2023/09/02 04:36:17;;;;;;;9.47;4.67;;;;;;;;;;5031153;28;20241;-82
2023/09/02 04:38:45;;;;;;;3.50;3.20;;;;;;;;;;5031476;28;20242;-82
2023/09/02 04:41:12;;;;;;;5.37;4.07;;;;;;;;;;5030990;28;20241;-82
2023/09/02 04:43:40;;;;;;;5.57;4.10;;;;;;;;;;5031788;28;20211;-82
2023/09/02 04:46:07;;;;;;;6.93;3.50;;;;;;;;;;5031297;28;20227;-82
2023/09/02 04:48:35;;;;;;;4.50;3.53;;;;;;;;;;5031691;28;20321;-83
2023/09/02 04:51:03;;;;;;;3.77;3.47;;;;;;;;;;5030667;28;20234;-82
2023/09/02 04:53:31;;;;;;;7.60;3.50;;;;;;;;;;5031674;28;20218;-82
2023/09/02 04:56:00;;;;;;;31.33;8.90;;;;;;;;;;5031077;28;20234;-81
2023/09/02 04:58:27;;;;;;;11.07;4.57;;;;;;;;;;5031595;28;20222;-82
2023/09/02 05:00:54;;;;;;;5.10;3.93;;;;;;;;;;5030947;28;20234;-83
2023/09/02 05:03:21;;;;;;;3.83;3.53;;;;;;;;;;5031348;28;20600;-82
2023/09/02 05:05:49;;;;;;;7.83;3.77;;;;;;;;;;5030839;28;20230;-82
2023/09/02 05:08:16;;;;;;;7.03;4.57;;;;;;;;;;5031594;28;20230;-82
2023/09/02 05:10:43;;;;;;;4.53;4.13;;;;;;;;;;5030755;28;20230;-83
2023/09/02 05:13:12;;;;;;;4.13;3.50;;;;;;;;;;5031297;28;20203;-82
2023/09/02 05:15:39;;;;;;;4.37;3.97;;;;;;;;;;5033311;28;20242;-82
2023/09/02 05:18:06;;;;;;;4.20;3.80;;;;;;;;;;5035098;28;20237;-82
2023/09/02 05:20:33;;;;;;;4.17;3.77;;;;;;;;;;5033967;28;20257;-82
2023/09/02 05:23:00;;;;;;;4.03;3.70;;;;;;;;;;5034606;28;20703;-83
2023/09/02 05:25:28;;;;;;;3.50;3.20;;;;;;;;;;5034584;28;20227;-82
2023/09/02 05:27:55;;;;;;;3.77;3.47;;;;;;;;;;5034780;28;20219;-82
2023/09/02 05:30:23;;;;;;;8.50;3.37;;;;;;;;;;5034376;28;20227;-82
2023/09/02 05:32:50;;;;;;;3.13;2.93;;;;;;;;;;5034898;28;20214;-82
2023/09/02 05:35:17;;;;;;;7.57;3.00;;;;;;;;;;5033973;28;20750;-83
2023/09/02 05:37:44;;;;;;;3.13;2.70;;;;;;;;;;5034334;28;20249;-82
2023/09/02 05:40:12;;;;;;;3.37;3.03;;;;;;;;;;5034206;28;20236;-82
2023/09/02 05:42:39;;;;;;;3.37;2.87;;;;;;;;;;5034241;28;20398;-82
2023/09/02 05:45:07;;;;;;;6.30;3.00;;;;;;;;;;5034024;28;20677;-83
2023/09/02 05:47:35;;;;;;;3.10;2.90;;;;;;;;;;5034281;28;20223;-83
2023/09/02 05:50:02;;;;;;;4.80;3.03;;;;;;;;;;5033692;28;20226;-82
2023/09/02 05:52:29;;;;;;;4.67;3.30;;;;;;;;;;5034019;28;20211;-82
2023/09/02 05:54:56;;;;;;;3.63;3.33;;;;;;;;;;5033642;28;20217;-83
2023/09/02 05:57:23;;;;;;;4.17;3.87;;;;;;;;;;5034074;28;20215;-82
2023/09/02 05:59:50;;;;;;;5.90;3.07;;;;;;;;;;5033700;28;20218;-83
2023/09/02 06:02:17;;;;;;;4.07;3.67;;;;;;;;;;5033787;28;20218;-83
2023/09/02 06:04:46;;;;;;;3.70;3.30;;;;;;;;;;5014308;28;20207;-83
2023/09/02 06:07:13;;;;;;;3.60;3.30;;;;;;;;;;5032465;28;20235;-85
2023/09/02 06:09:40;;;;;;;4.73;3.33;;;;;;;;;;5029804;28;20258;-83
2023/09/02 06:12:08;;;;;;;4.60;4.20;;;;;;;;;;5032601;28;20234;-84
2023/09/02 06:14:35;;;;;;;5.43;4.87;;;;;;;;;;5033635;28;20241;-85
2023/09/02 06:17:04;;;;;;;5.70;5.00;;;;;;;;;;5014864;28;20235;-86
2023/09/02 06:19:31;;;;;;;5.60;4.43;;;;;;;;;;5010174;28;20220;-85
2023/09/02 06:21:59;;;;;;;5.87;4.27;;;;;;;;;;4993709;28;20242;-85
2023/09/02 06:24:26;;;;;;;8.00;4.67;;;;;;;;;;4994711;28;20208;-85
2023/09/02 06:26:53;;;;;;;4.87;4.37;;;;;;;;;;4993052;28;20232;-85
2023/09/02 06:29:20;;;;;;;4.70;4.00;;;;;;;;;;4994314;28;20600;-84
2023/09/02 06:31:47;;;;;;;5.93;4.67;;;;;;;;;;4993728;28;20319;-84
2023/09/02 06:34:15;;;;;;;8.60;6.30;;;;;;;;;;4994308;28;20207;-84
2023/09/02 06:36:44;;;;;;;12.00;7.00;;;;;;;;;;4993679;28;20709;-84
2023/09/02 06:39:13;;;;;;;10.83;7.20;;;;;;;;;;4994626;28;20230;-85
2023/09/02 06:41:40;;;;;;;13.80;8.20;;;;;;;;;;5013005;28;20250;-84
2023/09/02 06:44:07;;;;;;;15.13;8.10;;;;;;;;;;5013815;28;20238;-84
2023/09/02 06:46:37;;;;;;;13.40;7.93;;;;;;;;;;5013080;28;20248;-84
2023/09/02 06:49:05;;;;;;;19.13;8.70;;;;;;;;;;5013726;28;20234;-84
2023/09/02 06:51:32;;;;;;;16.90;9.13;;;;;;;;;;5002909;28;20701;-85
2023/09/02 06:53:59;;;;;;;16.80;8.63;;;;;;;;;;4993977;28;20207;-84
2023/09/02 06:56:27;;;;;;;16.03;8.57;;;;;;;;;;4993560;28;20255;-84
2023/09/02 06:58:55;;;;;;;23.10;10.67;;;;;;;;;;4993713;28;20220;-84
2023/09/02 07:01:22;;;;;;;15.53;9.97;;;;;;;;;;4993162;28;20238;-85
2023/09/02 07:03:49;;;;;;;23.37;11.47;;;;;;;;;;4993528;28;20228;-85
2023/09/02 07:06:17;;;;;;;24.97;11.90;;;;;;;;;;4993124;28;20612;-85
2023/09/02 07:08:44;;;;;;;17.77;9.97;;;;;;;;;;4993696;28;20596;-83
2023/09/02 07:11:11;;;;;;;19.27;10.63;;;;;;;;;;4993018;28;20252;-83
2023/09/02 07:13:40;;;;;;;19.53;10.17;;;;;;;;;;4993302;28;20191;-84
2023/09/02 07:16:07;;;;;;;17.03;10.50;;;;;;;;;;4992800;28;20243;-84
2023/09/02 07:18:35;;;;;;;17.80;10.50;;;;;;;;;;4992836;28;20224;-84
2023/09/02 07:21:02;;;;;;;17.80;10.97;;;;;;;;;;4993127;28;20246;-84
2023/09/02 07:23:30;;;;;;;21.10;11.73;;;;;;;;;;4995979;28;20224;-85
2023/09/02 07:25:59;;;;;;;19.80;11.73;;;;;;;;;;5012141;28;20239;-87
2023/09/02 07:28:26;;;;;;;19.30;12.20;;;;;;;;;;5012526;28;20350;-85
2023/09/02 07:30:58;;;;;;;16.67;11.07;;;;;;;;;;5011793;28;20246;-84
2023/09/02 07:33:25;;;;;;;16.53;10.33;;;;;;;;;;5012839;28;20194;-85
2023/09/02 07:35:52;;;;;;;18.33;10.60;;;;;;;;;;5011983;28;20243;-86
2023/09/02 07:38:19;;;;;;;17.03;11.13;;;;;;;;;;5012253;28;20227;-85
2023/09/02 07:40:46;;;;;;;18.00;11.53;;;;;;;;;;4999865;28;20243;-85
2023/09/02 07:43:13;;;;;;;17.83;11.80;;;;;;;;;;5008200;28;20238;-86
2023/09/02 07:45:40;;;;;;;14.30;10.50;;;;;;;;;;5010750;28;20247;-85
2023/09/02 07:48:09;;;;;;;16.67;10.30;;;;;;;;;;5011465;28;20227;-85
2023/09/02 07:50:36;;;;;;;14.90;10.53;;;;;;;;;;5011057;28;20238;-85
2023/09/02 07:53:03;;;;;;;12.60;10.10;;;;;;;;;;5011966;28;20305;-85
2023/09/02 07:55:30;;;;;;;14.13;10.53;;;;;;;;;;5011597;28;20235;-85
2023/09/02 07:57:59;;;;;;;12.07;9.27;;;;;;;;;;5011723;28;20227;-85
2023/09/02 08:00:27;;;;;;;11.90;10.13;;;;;;;;;;5011054;28;20314;-86
2023/09/02 08:02:54;;;;;;;11.97;9.10;;;;;;;;;;5011463;28;20325;-85
2023/09/02 08:05:22;;;;;;;13.50;8.53;;;;;;;;;;5011006;28;20231;-85
2023/09/02 08:07:49;;;;;;;11.55;9.90;;;;;;;;;;5012566;28;20244;-85
2023/09/02 08:10:16;;;;;;;11.60;8.67;;;;;;;;;;5010824;28;20245;-84
2023/09/02 08:12:45;;;;;;;10.47;8.10;;;;;;;;;;5011246;28;20203;-85
2023/09/02 08:15:13;;;;;;;11.35;9.05;;;;;;;;;;5010845;28;20775;-84
2023/09/02 08:17:41;;;;;;;10.25;8.77;;;;;;;;;;5011381;28;20729;-85
2023/09/02 08:20:09;;;;;;;10.18;8.38;;;;;;;;;;5011154;28;20239;-85
2023/09/02 08:22:39;;;;;;;10.45;7.97;;;;;;;;;;5011382;28;20689;-85
2023/09/02 08:25:06;;;;;;;9.30;7.65;;;;;;;;;;5012030;28;20192;-85
2023/09/02 08:27:33;;;;;;;10.80;7.25;;;;;;;;;;5012490;28;20227;-85
2023/09/02 08:30:00;;;;;;;7.50;6.70;;;;;;;;;;5011390;28;20204;-85
2023/09/02 08:32:30;;;;;;;7.65;6.70;;;;;;;;;;5011623;28;20588;-85
2023/09/02 08:34:57;;;;;;;8.05;6.40;;;;;;;;;;5013347;28;20211;-85
2023/09/02 08:37:24;;;;;;;7.93;6.15;;;;;;;;;;4998779;28;20573;-86
2023/09/02 08:39:53;;;;;;;7.13;6.03;;;;;;;;;;5000256;28;20204;-84
2023/09/02 08:42:20;;;;;;;8.02;6.97;;;;;;;;;;4992137;28;20760;-83
2023/09/02 08:44:47;;;;;;;7.43;6.70;;;;;;;;;;4994705;28;20199;-85
2023/09/02 08:47:17;;;;;;;7.18;6.47;;;;;;;;;;5011086;28;20223;-87
2023/09/02 08:49:44;;;;;;;6.85;5.78;;;;;;;;;;5003726;28;20203;-89
2023/09/02 08:52:12;;;;;;;7.63;5.75;;;;;;;;;;5003954;28;20235;-88
2023/09/02 08:54:40;;;;;;;8.57;6.40;;;;;;;;;;5014932;28;20218;-90
2023/09/02 08:57:11;;;;;;;6.75;5.60;;;;;;;;;;5007748;28;20873;-80
2023/09/02 08:59:38;;;;;;;5.57;4.93;;;;;;;;;;5011939;28;20203;-81
2023/09/02 09:02:05;;;;;;;4.68;4.28;;;;;;;;;;5014714;28;20247;-80
2023/09/02 09:04:34;;;;;;;5.22;4.80;;;;;;;;;;5015212;28;20231;-81
2023/09/02 09:07:04;;;;;;;5.45;4.80;;;;;;;;;;5014721;28;20301;-80
2023/09/02 09:09:31;;;;;;;5.03;4.57;;;;;;;;;;5015326;28;20206;-80
2023/09/02 09:12:01;;;;;;;5.50;5.00;;;;;;;;;;5014540;28;20254;-81
2023/09/02 09:14:32;;;;;;;5.10;4.60;;;;;;;;;;5015467;28;20200;-81
2023/09/02 09:16:59;;;;;;;4.40;4.00;;;;;;;;;;4999862;28;20242;-81
2023/09/02 09:19:27;;;;;;;5.05;4.47;;;;;;;;;;4995784;28;20583;-82
2023/09/02 09:21:55;;;;;;;4.57;4.18;;;;;;;;;;4995045;28;20235;-81
2023/09/02 09:24:22;;;;;;;7.35;5.10;;;;;;;;;;4995372;28;20702;-80
2023/09/02 09:26:50;;;;;;;4.82;4.43;;;;;;;;;;4994748;28;20239;-80
2023/09/02 09:29:18;;;;;;;3.65;3.35;;;;;;;;;;4995266;28;20208;-80
2023/09/02 09:31:46;;;;;;;3.45;3.15;;;;;;;;;;4994443;28;20239;-80
2023/09/02 09:34:13;;;;;;;3.00;2.80;;;;;;;;;;5010558;28;20197;-80
2023/09/02 09:36:41;;;;;;;3.30;3.00;;;;;;;;;;4994042;28;20788;-79
2023/09/02 09:39:08;;;;;;;3.15;2.72;;;;;;;;;;4994344;28;20235;-82
2023/09/02 09:41:36;;;;;;;3.03;2.83;;;;;;;;;;4998283;28;20270;-79
2023/09/02 09:44:04;;;;;;;3.60;2.97;;;;;;;;;;4993263;28;20243;-81
2023/09/02 09:46:31;;;;;;;3.10;2.80;;;;;;;;;;4993035;28;20877;-81
2023/09/02 09:49:01;;;;;;;2.40;2.20;;;;;;;;;;4993964;28;20592;-81
2023/09/02 09:51:29;;;;;;;2.95;2.67;;;;;;;;;;5003351;28;20255;-81
2023/09/02 09:53:56;;;;;;;2.05;1.92;;;;;;;;;;5003783;28;20204;-82
2023/09/02 09:56:24;;;;;;;1.67;1.58;;;;;;;;;;5004710;28;20243;-82
2023/09/02 09:58:51;;;;;;;1.40;1.30;;;;;;;;;;5013190;28;20299;-81
2023/09/02 10:01:23;;;;;;;1.70;1.60;;;;;;;;;;5003960;28;20224;-81
2023/09/02 10:03:54;;;;;;;3.22;1.75;;;;;;;;;;5011027;28;20227;-82
2023/09/02 10:06:23;;;;;;;1.27;1.27;;;;;;;;;;5011489;28;20227;-82
2023/09/02 10:08:51;;;;;;;1.65;1.55;;;;;;;;;;5012759;28;20230;-82
2023/09/02 10:11:22;;;;;;;1.60;1.50;;;;;;;;;;5011810;28;20231;-81
2023/09/02 10:13:50;;;;;;;1.50;1.40;;;;;;;;;;5010941;28;20619;-81
2023/09/02 10:16:17;;;;;;;1.80;1.70;;;;;;;;;;5008110;28;20228;-82
2023/09/02 10:18:46;;;;;;;2.10;2.00;;;;;;;;;;4992944;28;20590;-80
2023/09/02 10:21:15;;;;;;;1.77;1.67;;;;;;;;;;4996941;28;20330;-80
2023/09/02 10:23:45;;;;;;;1.35;1.25;;;;;;;;;;4996384;28;20227;-81
2023/09/02 10:26:16;;;;;;;1.45;1.45;;;;;;;;;;4994691;28;20238;-81
2023/09/02 10:28:44;;;;;;;1.90;1.80;;;;;;;;;;5002632;28;20228;-80
2023/09/02 10:31:16;;;;;;;1.45;1.38;;;;;;;;;;4995289;28;20228;-80
2023/09/02 10:33:47;;;;;;;1.20;1.10;;;;;;;;;;4995581;28;20329;-80
2023/09/02 10:36:17;;;;;;;1.67;1.58;;;;;;;;;;5000207;28;20232;-80
2023/09/02 10:38:48;;;;;;;1.35;1.25;;;;;;;;;;4992620;28;20243;-80
2023/09/02 10:41:16;;;;;;;1.58;1.48;;;;;;;;;;4992289;28;20232;-80
2023/09/02 10:43:43;;;;;;;1.30;1.20;;;;;;;;;;5002141;28;20227;-80
2023/09/02 10:46:11;;;;;;;1.20;1.20;;;;;;;;;;5002549;28;20232;-80
2023/09/02 10:48:39;;;;;;;1.20;1.20;;;;;;;;;;5008155;28;20235;-80
2023/09/02 10:51:07;;;;;;;1.10;1.10;;;;;;;;;;5021575;28;20230;-80
2023/09/02 10:53:53;;;;;;;1.05;1.05;;;;;;;;;;5033082;28;20203;-80
2023/09/02 10:56:26;;;;;;;3.25;1.10;;;;;;;;;;5005753;28;20227;-80
2023/09/02 10:58:54;;;;;;;1.17;1.17;;;;;;;;;;5011791;28;20238;-80
2023/09/02 11:01:21;;;;;;;1.20;1.13;;;;;;;;;;5011624;28;20285;-80
2023/09/02 11:03:49;;;;;;;1.95;1.17;;;;;;;;;;5011634;28;20246;-80
2023/09/02 11:06:17;;;;;;;1.10;1.10;;;;;;;;;;5011727;28;20223;-80
2023/09/02 11:08:44;;;;;;;1.63;1.08;;;;;;;;;;5011725;28;20227;-80
2023/09/02 11:11:12;;;;;;;0.88;0.88;;;;;;;;;;5003178;28;20235;-81
2023/09/02 11:13:58;;;;;;;1.23;1.20;;;;;;;;;;5009096;28;20767;-81
2023/09/02 11:16:27;;;;;;;2.63;0.95;;;;;;;;;;5011610;28;20238;-81
2023/09/02 11:18:54;;;;;;;3.65;1.63;;;;;;;;;;5011279;28;20231;-81
2023/09/02 11:21:42;;;;;;;2.08;1.40;;;;;;;;;;5011223;28;20234;-81
2023/09/02 11:24:18;;;;;;;1.20;1.10;;;;;;;;;;5001488;28;20267;-84
2023/09/02 11:26:52;;;;;;;1.02;0.95;;;;;;;;;;5007643;28;20235;-82
2023/09/02 11:29:23;;;;;;;0.68;0.68;;;;;;;;;;5011786;28;20230;-83
2023/09/02 11:31:58;;;;;;;2.03;1.10;;;;;;;;;;5002961;28;20616;-82
2023/09/02 11:34:25;;;;;;;2.05;1.45;;;;;;;;;;4992170;28;20196;-83
2023/09/02 11:36:52;;;;;;;1.10;1.10;;;;;;;;;;4994661;28;20231;-82
2023/09/02 11:39:19;;;;;;;0.88;0.88;;;;;;;;;;5008689;28;20654;-83
2023/09/02 11:41:46;;;;;;;1.38;1.27;;;;;;;;;;5006065;28;20236;-82
2023/09/02 11:44:14;;;;;;;2.05;1.10;;;;;;;;;;4996219;28;20227;-81
2023/09/02 11:46:42;;;;;;;1.33;1.23;;;;;;;;;;4993213;28;20228;-82
2023/09/02 11:49:14;;;;;;;1.30;1.02;;;;;;;;;;4994778;28;20230;-82
2023/09/02 11:51:41;;;;;;;1.95;1.75;;;;;;;;;;4995655;28;20235;-81
2023/09/02 11:54:08;;;;;;;1.45;1.35;;;;;;;;;;4994372;28;20219;-81
2023/09/02 11:56:36;;;;;;;1.45;1.35;;;;;;;;;;4991711;28;20254;-82
2023/09/02 11:59:03;;;;;;;0.85;0.85;;;;;;;;;;4991096;28;20228;-82
2023/09/02 12:01:30;;;;;;;0.88;0.88;;;;;;;;;;4991266;28;20248;-81
2023/09/02 12:03:57;;;;;;;0.80;0.80;;;;;;;;;;4993463;28;20235;-81
2023/09/02 12:06:30;;;;;;;1.73;1.00;;;;;;;;;;4991549;28;20235;-81
2023/09/02 12:08:57;;;;;;;0.93;0.93;;;;;;;;;;4991267;28;20318;-82
2023/09/02 12:11:25;;;;;;;0.80;0.80;;;;;;;;;;4999274;28;20311;-81
2023/09/02 12:13:52;;;;;;;0.65;0.65;;;;;;;;;;4992057;28;20704;-81
2023/09/02 12:16:19;;;;;;;1.30;0.70;;;;;;;;;;4998576;28;20242;-82
2023/09/02 12:18:46;;;;;;;0.88;0.88;;;;;;;;;;4987097;28;20235;-81
2023/09/02 12:21:12;;;;;;;0.65;0.65;;;;;;;;;;4990813;28;20231;-81
2023/09/02 12:23:41;;;;;;;1.38;0.60;;;;;;;;;;4991398;28;20599;-79
2023/09/02 12:26:09;;;;;;;1.30;0.70;;;;;;;;;;4994211;28;20227;-80
2023/09/02 12:28:36;;;;;;;0.82;0.65;;;;;;;;;;4995399;28;20232;-81
2023/09/02 12:31:04;;;;;;;0.60;0.60;;;;;;;;;;4995019;28;20242;-82
2023/09/02 12:33:31;;;;;;;0.88;0.88;;;;;;;;;;4995403;28;20270;-83
2023/09/02 12:35:58;;;;;;;0.57;0.57;;;;;;;;;;5003311;28;20228;-83
2023/09/02 12:38:25;;;;;;;0.82;0.70;;;;;;;;;;4995289;28;20235;-82
2023/09/02 12:40:54;;;;;;;2.33;0.70;;;;;;;;;;5002762;28;20231;-81
2023/09/02 12:43:26;;;;;;;1.30;0.65;;;;;;;;;;4998508;28;20200;-81
2023/09/02 12:45:54;;;;;;;0.60;0.60;;;;;;;;;;5003413;28;20223;-81
2023/09/02 12:48:21;;;;;;;1.50;0.80;;;;;;;;;;5002232;28;20220;-81
2023/09/02 12:50:48;;;;;;;0.63;0.63;;;;;;;;;;4996389;28;20238;-81
2023/09/02 12:53:15;;;;;;;1.23;1.23;;;;;;;;;;4998280;28;20273;-82
2023/09/02 12:55:43;;;;;;;0.70;0.70;;;;;;;;;;5006865;28;20235;-80
2023/09/02 12:58:11;;;;;;;0.73;0.60;;;;;;;;;;5011950;28;20231;-81
2023/09/02 13:00:39;;;;;;;0.88;0.88;;;;;;;;;;4997173;28;20232;-82
2023/09/02 13:03:06;;;;;;;1.63;1.52;;;;;;;;;;5004465;28;20584;-82
2023/09/02 13:05:33;;;;;;;1.17;1.10;;;;;;;;;;4995409;28;20616;-81
2023/09/02 13:08:00;;;;;;;1.10;1.00;;;;;;;;;;5004052;28;20234;-80
2023/09/02 13:10:27;;;;;;;0.98;0.98;;;;;;;;;;4996668;28;20232;-81
2023/09/02 13:12:54;;;;;;;0.75;0.75;;;;;;;;;;4996832;28;20212;-82
2023/09/02 13:15:24;;;;;;;1.15;1.10;;;;;;;;;;5015890;28;20630;-81
2023/09/02 13:17:52;;;;;;;0.73;0.70;;;;;;;;;;5014082;28;20255;-81
2023/09/02 13:20:19;;;;;;;0.60;0.60;;;;;;;;;;5018076;28;20233;-81
2023/09/02 13:22:47;;;;;;;0.73;0.73;;;;;;;;;;5013409;28;20231;-79
2023/09/02 13:25:16;;;;;;;0.55;0.55;;;;;;;;;;5014333;28;20240;-79
2023/09/02 13:27:43;;;;;;;0.60;0.60;;;;;;;;;;5012272;28;20228;-80
2023/09/02 13:30:11;;;;;;;1.38;1.20;;;;;;;;;;5017788;28;20231;-80
2023/09/02 13:32:39;;;;;;;0.80;0.80;;;;;;;;;;5007032;28;20208;-80
2023/09/02 13:35:09;;;;;;;1.42;0.95;;;;;;;;;;5014140;28;20207;-81
2023/09/02 13:37:36;;;;;;;1.45;0.80;;;;;;;;;;5035181;23;20227;-82
2023/09/02 13:40:09;;;;;;;0.50;0.50;;;;;;;;;;5025593;28;20214;-81
2023/09/02 13:42:36;;;;;;;1.02;0.85;;;;;;;;;;5041720;28;20210;-79
2023/09/02 13:45:10;;;;;;;0.50;0.50;;;;;;;;;;5034294;28;20227;-80
2023/09/02 13:47:37;;;;;;;1.48;0.60;;;;;;;;;;5043493;28;20238;-79
2023/09/02 13:50:10;;;;;;;2.33;0.90;;;;;;;;;;5021388;28;20226;-80
2023/09/02 13:52:37;;;;;;;0.80;0.70;;;;;;;;;;5016049;28;20945;-80
2023/09/02 13:55:05;;;;;;;1.10;0.90;;;;;;;;;;5011330;28;20208;-81
2023/09/02 13:57:32;;;;;;;1.52;0.90;;;;;;;;;;5003861;28;20227;-80
2023/09/02 14:00:01;;;;;;;0.90;0.90;;;;;;;;;;5003318;28;20216;-80
2023/09/02 14:02:28;;;;;;;0.60;0.60;;;;;;;;;;4999985;28;20215;-80
2023/09/02 14:04:55;;;;;;;1.52;1.10;;;;;;;;;;4999406;28;20223;-80
2023/09/02 14:07:23;;;;;;;1.38;1.17;;;;;;;;;;4993597;28;20223;-80
2023/09/02 14:09:50;;;;;;;0.93;0.85;;;;;;;;;;5004462;28;20215;-80
2023/09/02 14:12:19;;;;;;;1.00;0.80;;;;;;;;;;4997524;28;20212;-80
2023/09/02 14:14:46;;;;;;;1.85;0.77;;;;;;;;;;5005737;28;20235;-80
2023/09/02 14:17:14;;;;;;;1.77;1.05;;;;;;;;;;5029707;28;20778;-80
2023/09/02 14:19:41;;;;;;;0.57;0.57;;;;;;;;;;5021650;28;20215;-80
2023/09/02 14:22:08;;;;;;;1.00;0.90;;;;;;;;;;5019758;28;20234;-80
2023/09/02 14:24:35;;;;;;;1.70;0.93;;;;;;;;;;5019772;28;20242;-80
2023/09/02 14:27:09;;;;;;;0.85;0.85;;;;;;;;;;5018576;28;20325;-79
2023/09/02 14:29:36;;;;;;;1.00;1.00;;;;;;;;;;5021166;28;20217;-79
2023/09/02 14:32:04;;;;;;;0.90;0.90;;;;;;;;;;5019486;28;20826;-79
2023/09/02 14:34:31;;;;;;;0.77;0.77;;;;;;;;;;5025719;28;20260;-80
2023/09/02 14:36:58;;;;;;;0.80;0.80;;;;;;;;;;5021728;28;20238;-81
2023/09/02 14:39:25;;;;;;;1.48;0.70;;;;;;;;;;5016772;28;20235;-80
2023/09/02 14:41:54;;;;;;;0.90;0.90;;;;;;;;;;5019871;28;20235;-80
2023/09/02 14:44:21;;;;;;;0.77;0.77;;;;;;;;;;5013095;28;20239;-81